Current | Forecast
Updated: 7:00 AM +08 on June 24, 2018
Observed at Ulan-Ude, Russia
Temperature 55°F
Humidity 82%
Dew Point 50°F
Wind Variable at 2 mph
Pressure 29.68 in (Steady)
Conditions Clear
Visibility 6.2 miles
UV N/A
Clouds
Yesterday's Maximum 77°F
Yesterday's Minimum 61°F approx.
Yesterday's Cooling Degree Days 4 approx.
Sunrise4:35 AM +08
Sunset9:18 PM +08
Moon Rise5:09 PM +08
Moon Set2:37 AM +08
Moon PhaseMoon Phase
Waxing Gibbous
Raw METARMETAR UIUU 232300Z VRB01MPS 9999 NSC 13/10 Q1005 R26/CLRD60 NOSIG RMK QFE710/0947


Monday
. High: 51° F.
Tuesday
. High: 39° F.
Wednesday
. High: 37° F.
Thursday
. High: 41° F.
Friday
. High: 44° F.
Saturday
. High: 41° F.
Sunday
. High: 51° F.
Monday
. High: 53° F.

Units: English | Metric

Find the Weather for any City, State or Zipcode, or Country:

U.S. State List | Severe Weather | Tropical Storms | Ski Conditions
United States | Canada | Central America | South America | Asia | Europe | Australia | Africa | Islands

Weather Underground

© Copyright 2018
The Weather Company, LLC